Time;durP1;ratioP1;P1;durP2;ratioP2;P2;SDS_P1;SDS_P2;PMS_P1;PMS_P2;Temp;Humidity;BMP_temperature;BMP_pressure;BME280_temperature;BME280_humidity;BME280_pressure;Samples;Min_cycle;Max_cycle;Signal;HPM_P1;HPM_P2
2023/07/06 00:00:50;;;;;;;10.80;10.40;;;12.60;99.90;;;;;;5037676;28;20502;-68
2023/07/06 00:03:18;;;;;;;10.40;10.00;;;12.50;99.90;;;;;;5034452;28;20468;-66
2023/07/06 00:05:45;;;;;;;10.97;10.57;;;12.50;99.90;;;;;;5035178;28;20878;-67
2023/07/06 00:08:16;;;;;;;12.13;11.53;;;12.40;99.90;;;;;;5052718;28;20469;-69
2023/07/06 00:10:44;;;;;;;10.93;10.53;;;12.40;99.90;;;;;;5043680;28;20467;-68
2023/07/06 00:13:12;;;;;;;11.33;10.93;;;12.40;99.90;;;;;;5036602;28;20467;-66
2023/07/06 00:15:42;;;;;;;10.83;10.43;;;12.40;99.90;;;;;;5043690;28;20502;-67
2023/07/06 00:18:10;;;;;;;11.23;10.83;;;12.30;99.90;;;;;;5047633;28;20792;-68
2023/07/06 00:20:38;;;;;;;13.00;12.50;;;12.30;99.90;;;;;;5051727;28;20605;-67
2023/07/06 00:23:06;;;;;;;11.50;11.10;;;12.30;99.90;;;;;;5050553;28;20495;-66
2023/07/06 00:25:35;;;;;;;11.90;11.47;;;12.20;99.90;;;;;;5034695;28;20460;-66
2023/07/06 00:28:02;;;;;;;11.70;11.30;;;12.20;99.90;;;;;;5037092;28;20545;-66
2023/07/06 00:30:41;;;;;;;11.67;11.27;;;12.20;99.90;;;;;;5050608;28;20856;-66
2023/07/06 00:33:08;;;;;;;11.23;10.83;;;12.20;99.90;;;;;;5039457;28;20466;-67
2023/07/06 00:35:37;;;;;;;11.30;10.80;;;12.20;99.90;;;;;;5053855;28;20862;-66
2023/07/06 00:38:09;;;;;;;11.50;11.10;;;12.10;99.90;;;;;;5035446;28;20547;-66
2023/07/06 00:40:38;;;;;;;11.43;11.03;;;12.10;99.90;;;;;;5052623;28;20545;-67
2023/07/06 00:43:06;;;;;;;11.70;11.30;;;12.10;99.90;;;;;;5048097;28;20456;-66
2023/07/06 00:45:34;;;;;;;11.57;11.17;;;12.10;99.90;;;;;;5049652;28;20557;-65
2023/07/06 00:48:01;;;;;;;11.27;10.87;;;12.10;99.90;;;;;;5048345;28;20471;-66
2023/07/06 00:50:32;;;;;;;12.07;11.57;;;12.00;99.90;;;;;;5049904;28;20486;-66
2023/07/06 00:53:02;;;;;;;12.23;11.70;;;12.00;99.90;;;;;;5044906;28;20482;-66
2023/07/06 00:55:33;;;;;;;10.97;10.57;;;12.00;99.90;;;;;;5047852;28;20499;-66
2023/07/06 00:58:08;;;;;;;11.30;10.90;;;12.00;99.90;;;;;;5047883;28;20459;-66
2023/07/06 01:00:36;;;;;;;11.60;11.20;;;12.00;99.90;;;;;;5050516;28;20487;-66
2023/07/06 01:03:04;;;;;;;12.23;11.73;;;11.90;99.90;;;;;;5046548;28;20949;-67
2023/07/06 01:05:31;;;;;;;11.73;11.33;;;12.00;99.90;;;;;;5048561;28;20463;-66
2023/07/06 01:08:05;;;;;;;11.30;10.90;;;12.00;99.90;;;;;;5047465;28;20459;-68
2023/07/06 01:10:33;;;;;;;11.43;11.03;;;12.00;99.90;;;;;;5043265;28;20529;-67
2023/07/06 01:13:02;;;;;;;12.60;11.90;;;12.00;99.90;;;;;;5046467;28;20474;-65
2023/07/06 01:15:31;;;;;;;11.70;11.30;;;11.90;99.90;;;;;;5050003;28;20480;-66
2023/07/06 01:18:06;;;;;;;11.93;11.53;;;11.90;99.90;;;;;;5039588;28;20467;-67
2023/07/06 01:20:39;;;;;;;11.43;11.03;;;11.80;99.90;;;;;;5053324;28;20511;-66
2023/07/06 01:23:36;;;;;;;12.07;11.60;;;11.80;99.90;;;;;;5043904;28;20844;-65
2023/07/06 01:26:13;;;;;;;12.23;11.73;;;11.70;99.90;;;;;;5043976;28;20472;-67
2023/07/06 01:29:03;;;;;;;11.97;11.57;;;11.70;99.90;;;;;;5041572;28;20499;-66
2023/07/06 01:31:42;;;;;;;11.90;11.37;;;11.70;99.90;;;;;;5050656;28;20470;-65
2023/07/06 01:34:18;;;;;;;11.20;10.80;;;11.70;99.90;;;;;;5052728;28;20458;-65
2023/07/06 01:36:51;;;;;;;11.30;10.90;;;11.60;99.90;;;;;;5057894;28;20551;-66
2023/07/06 01:39:21;;;;;;;11.83;11.43;;;11.60;99.90;;;;;;5055973;28;20474;-66
2023/07/06 01:42:25;;;;;;;10.80;10.40;;;11.60;99.90;;;;;;5059429;28;20464;-66
2023/07/06 01:44:55;;;;;;;11.47;11.07;;;11.50;99.90;;;;;;5050547;28;20456;-65
2023/07/06 01:47:24;;;;;;;11.20;10.80;;;11.50;99.90;;;;;;5047120;28;20975;-65
2023/07/06 01:49:53;;;;;;;11.30;10.90;;;11.50;99.90;;;;;;5053592;28;21077;-65
2023/07/06 01:52:29;;;;;;;10.60;10.20;;;11.50;99.90;;;;;;5049164;28;20459;-66
2023/07/06 01:55:08;;;;;;;11.10;10.70;;;11.50;99.90;;;;;;5052697;28;20463;-66
2023/07/06 01:57:41;;;;;;;11.87;11.47;;;11.40;99.90;;;;;;5038587;28;20456;-66
2023/07/06 02:00:14;;;;;;;11.60;11.20;;;11.40;99.90;;;;;;5053428;28;20506;-64
2023/07/06 02:02:44;;;;;;;11.63;11.23;;;11.30;99.90;;;;;;5052849;28;20467;-65
2023/07/06 02:05:13;;;;;;;12.67;12.17;;;11.30;99.90;;;;;;5043326;28;20457;-65
2023/07/06 02:07:41;;;;;;;13.10;12.40;;;11.30;99.90;;;;;;5044154;28;20554;-66
2023/07/06 02:10:13;;;;;;;11.40;11.00;;;11.30;99.90;;;;;;5049997;28;20460;-67
2023/07/06 02:12:42;;;;;;;11.57;11.07;;;11.40;99.90;;;;;;5051800;28;20982;-65
2023/07/06 02:15:10;;;;;;;11.97;11.30;;;11.40;99.90;;;;;;5045917;28;20491;-67
2023/07/06 02:17:37;;;;;;;11.40;11.00;;;11.40;99.90;;;;;;5056359;28;20557;-65
2023/07/06 02:20:09;;;;;;;11.50;11.10;;;11.40;99.90;;;;;;5036750;28;20541;-65
2023/07/06 02:22:35;;;;;;;11.60;11.10;;;11.50;99.90;;;;;;5036276;28;20471;-65
2023/07/06 02:25:03;;;;;;;11.43;11.03;;;11.40;99.90;;;;;;5051440;28;20456;-65
2023/07/06 02:27:32;;;;;;;11.43;11.03;;;11.40;99.90;;;;;;5048223;28;20460;-65
2023/07/06 02:30:00;;;;;;;11.07;10.67;;;11.40;99.90;;;;;;5046443;28;20463;-66
2023/07/06 02:32:27;;;;;;;11.43;11.03;;;11.30;99.90;;;;;;5054392;28;20542;-67
2023/07/06 02:34:55;;;;;;;11.70;11.20;;;11.30;99.90;;;;;;5049923;28;20463;-66
2023/07/06 02:37:24;;;;;;;11.93;11.47;;;11.20;99.90;;;;;;5053308;28;20462;-65
2023/07/06 02:39:52;;;;;;;13.53;12.93;;;11.20;99.90;;;;;;5049932;28;20475;-65
2023/07/06 02:42:21;;;;;;;12.13;11.63;;;11.20;99.90;;;;;;5046715;28;20762;-65
2023/07/06 02:44:49;;;;;;;11.53;11.13;;;11.20;99.90;;;;;;5051256;28;20565;-66
2023/07/06 02:47:16;;;;;;;11.37;10.97;;;11.20;99.90;;;;;;5055130;28;20460;-67
2023/07/06 02:49:43;;;;;;;11.60;11.20;;;11.20;99.90;;;;;;5054494;28;21024;-65
2023/07/06 02:52:10;;;;;;;12.07;11.57;;;11.10;99.90;;;;;;5045121;28;20464;-66
2023/07/06 02:54:39;;;;;;;12.30;11.80;;;11.10;99.90;;;;;;5040891;28;20470;-66
2023/07/06 02:57:07;;;;;;;12.43;11.93;;;11.10;99.90;;;;;;5049613;28;20539;-65
2023/07/06 02:59:34;;;;;;;12.10;11.60;;;11.00;99.90;;;;;;5047690;28;20463;-65
2023/07/06 03:02:04;;;;;;;11.73;11.33;;;11.10;99.90;;;;;;5056546;28;20470;-66
2023/07/06 03:04:32;;;;;;;11.30;10.90;;;11.00;99.90;;;;;;5056228;28;20978;-65
2023/07/06 03:06:59;;;;;;;11.87;11.43;;;11.00;99.90;;;;;;5052838;28;20475;-67
2023/07/06 03:09:27;;;;;;;11.03;10.63;;;10.90;99.90;;;;;;5048434;28;20763;-67
2023/07/06 03:11:56;;;;;;;11.73;11.07;;;11.00;99.90;;;;;;5051024;28;20470;-66
2023/07/06 03:14:25;;;;;;;11.40;11.00;;;11.00;99.90;;;;;;5047690;28;21012;-67
2023/07/06 03:16:54;;;;;;;12.50;11.63;;;11.00;99.90;;;;;;5038193;28;20873;-65
2023/07/06 03:19:22;;;;;;;12.43;11.93;;;10.90;99.90;;;;;;5036922;28;20869;-66
2023/07/06 03:21:52;;;;;;;13.43;12.90;;;10.90;99.90;;;;;;5035951;28;20507;-66
2023/07/06 03:24:19;;;;;;;12.10;11.60;;;10.90;99.90;;;;;;5048748;28;21094;-64
2023/07/06 03:26:48;;;;;;;12.83;12.27;;;10.90;99.90;;;;;;5059116;28;20470;-65
2023/07/06 03:29:16;;;;;;;13.07;12.57;;;10.80;99.90;;;;;;5046275;28;20861;-66
2023/07/06 03:31:45;;;;;;;12.93;12.43;;;10.80;99.90;;;;;;5048186;28;20563;-66
2023/07/06 03:34:12;;;;;;;12.27;11.77;;;10.70;99.90;;;;;;5056898;28;20553;-64
2023/07/06 03:36:39;;;;;;;12.30;11.80;;;10.70;99.90;;;;;;5035958;28;20460;-66
2023/07/06 03:39:07;;;;;;;12.23;11.73;;;10.70;99.90;;;;;;5048544;28;20467;-66
2023/07/06 03:41:34;;;;;;;12.20;11.70;;;10.70;99.90;;;;;;5052342;28;20496;-66
2023/07/06 03:44:01;;;;;;;11.93;11.43;;;10.70;99.90;;;;;;5049048;28;20463;-64
2023/07/06 03:46:34;;;;;;;12.67;11.87;;;10.70;99.90;;;;;;5049822;28;20459;-66
2023/07/06 03:49:01;;;;;;;11.47;10.97;;;10.80;99.90;;;;;;5055314;28;20509;-65
2023/07/06 03:51:28;;;;;;;11.63;11.23;;;10.80;99.90;;;;;;5063002;28;20570;-66
2023/07/06 03:53:55;;;;;;;11.33;10.93;;;10.70;99.90;;;;;;5046305;28;20943;-65
2023/07/06 03:56:27;;;;;;;11.10;10.70;;;10.80;99.90;;;;;;5053758;28;20578;-65
2023/07/06 03:58:56;;;;;;;11.67;11.27;;;10.70;99.90;;;;;;5052287;28;20454;-66
2023/07/06 04:01:23;;;;;;;12.27;11.77;;;10.80;99.90;;;;;;5048112;28;20844;-65
2023/07/06 04:03:55;;;;;;;12.10;11.60;;;10.70;99.90;;;;;;5029536;28;20456;-66
2023/07/06 04:06:24;;;;;;;12.00;11.50;;;10.80;99.90;;;;;;5049250;28;20494;-66
2023/07/06 04:08:56;;;;;;;11.57;11.17;;;10.90;99.90;;;;;;5051507;28;20491;-66
2023/07/06 04:11:23;;;;;;;11.23;10.83;;;10.90;99.90;;;;;;5042079;28;20876;-66
2023/07/06 04:13:53;;;;;;;10.90;10.50;;;11.00;99.90;;;;;;5046974;28;20472;-66
2023/07/06 04:16:20;;;;;;;11.30;10.90;;;11.00;99.90;;;;;;5051201;28;20571;-67
2023/07/06 04:18:47;;;;;;;12.87;12.23;;;11.10;99.90;;;;;;5052869;28;20466;-64
2023/07/06 04:21:19;;;;;;;10.63;10.23;;;11.10;99.90;;;;;;5048835;28;20545;-66
2023/07/06 04:23:47;;;;;;;10.60;10.10;;;11.10;99.90;;;;;;5045289;28;20982;-66
2023/07/06 04:26:14;;;;;;;9.97;9.57;;;11.10;99.90;;;;;;5051125;28;20516;-66
2023/07/06 04:28:42;;;;;;;10.40;10.00;;;11.10;99.90;;;;;;5049227;28;20458;-65
2023/07/06 04:31:10;;;;;;;9.63;9.33;;;11.10;99.90;;;;;;5044109;28;20546;-66
2023/07/06 04:33:38;;;;;;;10.47;10.07;;;11.20;99.90;;;;;;5036191;28;20460;-66
2023/07/06 04:36:09;;;;;;;10.80;10.10;;;11.20;99.90;;;;;;5063365;28;20832;-65
2023/07/06 04:38:38;;;;;;;10.37;9.97;;;11.30;99.90;;;;;;5048298;28;20459;-65
2023/07/06 04:41:05;;;;;;;9.30;9.00;;;11.30;99.90;;;;;;5045137;28;20491;-66
2023/07/06 04:43:32;;;;;;;9.60;9.30;;;11.40;99.90;;;;;;5052657;28;20542;-67
2023/07/06 04:45:59;;;;;;;9.57;9.27;;;11.40;99.90;;;;;;5054545;28;20459;-66
2023/07/06 04:48:27;;;;;;;9.67;9.37;;;11.40;99.90;;;;;;5050669;28;20493;-65
2023/07/06 04:50:56;;;;;;;10.53;10.10;;;11.40;99.90;;;;;;5055480;28;21231;-66
2023/07/06 04:53:25;;;;;;;9.47;9.17;;;11.50;99.90;;;;;;5052283;28;20468;-66
2023/07/06 04:55:54;;;;;;;10.40;10.00;;;11.50;99.90;;;;;;5052271;28;20557;-66
2023/07/06 04:58:21;;;;;;;9.73;9.43;;;11.60;99.90;;;;;;5049922;28;20506;-67
2023/07/06 05:00:51;;;;;;;9.93;9.53;;;11.60;99.90;;;;;;5049623;28;20490;-65
2023/07/06 05:03:18;;;;;;;8.87;8.53;;;11.70;99.90;;;;;;5046911;28;20460;-66
2023/07/06 05:05:46;;;;;;;9.00;8.70;;;11.70;99.90;;;;;;5037018;28;20468;-66
2023/07/06 05:08:15;;;;;;;9.40;9.10;;;11.80;99.90;;;;;;5039634;28;20473;-67
2023/07/06 05:10:46;;;;;;;10.43;10.03;;;11.90;99.90;;;;;;5037669;28;21029;-65
2023/07/06 05:13:15;;;;;;;9.00;8.70;;;12.00;99.90;;;;;;5038564;28;20452;-65
2023/07/06 05:15:42;;;;;;;9.20;8.90;;;12.10;99.90;;;;;;5036010;28;21142;-66
2023/07/06 05:18:08;;;;;;;8.50;8.20;;;12.20;99.90;;;;;;5036504;28;20867;-67
2023/07/06 05:20:36;;;;;;;8.63;8.33;;;12.30;99.90;;;;;;5036912;28;20487;-66
2023/07/06 05:23:05;;;;;;;8.50;8.20;;;12.30;99.90;;;;;;5036191;28;20987;-66
2023/07/06 05:25:34;;;;;;;9.13;8.83;;;12.30;99.90;;;;;;5037792;28;20463;-67
2023/07/06 05:28:03;;;;;;;8.63;8.33;;;12.40;99.90;;;;;;5038077;28;20840;-67
2023/07/06 05:30:31;;;;;;;8.20;7.90;;;12.60;99.90;;;;;;5037314;28;20460;-66
2023/07/06 05:32:58;;;;;;;8.57;8.27;;;12.60;99.90;;;;;;5034682;28;20476;-66
2023/07/06 05:35:27;;;;;;;9.30;8.70;;;12.70;99.90;;;;;;5039768;28;20471;-66
2023/07/06 05:37:55;;;;;;;7.83;7.53;;;12.80;99.90;;;;;;5036362;28;20519;-65
2023/07/06 05:40:22;;;;;;;8.53;8.13;;;12.90;99.90;;;;;;5036746;28;20538;-66
2023/07/06 05:42:49;;;;;;;7.80;7.50;;;13.00;99.90;;;;;;5034743;28;20464;-66
2023/07/06 05:45:16;;;;;;;13.27;8.13;;;13.10;99.90;;;;;;5050422;28;20508;-66
2023/07/06 05:47:45;;;;;;;7.03;6.77;;;13.10;99.90;;;;;;5050436;28;20512;-67
2023/07/06 05:50:11;;;;;;;6.90;6.70;;;13.20;99.90;;;;;;5047169;28;20480;-66
2023/07/06 05:52:38;;;;;;;6.80;6.60;;;13.30;99.90;;;;;;5037072;28;20551;-66
2023/07/06 05:55:06;;;;;;;6.50;6.30;;;13.30;99.90;;;;;;5036735;28;20463;-67
2023/07/06 05:57:32;;;;;;;7.43;6.93;;;13.40;99.90;;;;;;5038731;28;20464;-67
2023/07/06 05:59:59;;;;;;;8.00;7.50;;;13.50;99.90;;;;;;5034993;28;20518;-66
2023/07/06 06:02:27;;;;;;;9.40;8.70;;;13.60;99.90;;;;;;5041789;28;20491;-67
2023/07/06 06:04:55;;;;;;;11.70;8.03;;;13.70;99.90;;;;;;5039449;28;20456;-67
2023/07/06 06:07:22;;;;;;;7.47;7.17;;;13.60;99.90;;;;;;5040716;28;20915;-67
2023/07/06 06:09:49;;;;;;;7.87;7.57;;;13.80;99.90;;;;;;5038225;28;20959;-66
2023/07/06 06:12:19;;;;;;;8.10;7.80;;;13.80;99.90;;;;;;5036426;28;20468;-67
2023/07/06 06:14:47;;;;;;;8.10;7.80;;;13.80;99.90;;;;;;5034186;28;20499;-67
2023/07/06 06:17:17;;;;;;;9.73;9.00;;;13.90;99.90;;;;;;5038928;28;20526;-67
2023/07/06 06:19:45;;;;;;;8.57;8.07;;;14.00;99.90;;;;;;5034067;28;20460;-66
2023/07/06 06:22:15;;;;;;;7.90;7.60;;;14.10;99.90;;;;;;5036093;28;20646;-67
2023/07/06 06:24:42;;;;;;;9.77;9.07;;;14.30;99.90;;;;;;5045880;28;20486;-66
2023/07/06 06:27:11;;;;;;;12.43;8.73;;;14.40;99.90;;;;;;5038932;28;21021;-68
2023/07/06 06:29:42;;;;;;;9.30;8.90;;;14.40;99.90;;;;;;5037762;28;20807;-67
2023/07/06 06:32:09;;;;;;;10.23;9.73;;;14.50;99.90;;;;;;5037796;28;20540;-66
2023/07/06 06:34:36;;;;;;;9.63;9.23;;;14.40;99.90;;;;;;5037109;28;20464;-67
2023/07/06 06:37:04;;;;;;;10.50;9.90;;;14.50;99.90;;;;;;5040082;28;20967;-65
2023/07/06 06:39:33;;;;;;;9.33;9.03;;;14.60;99.90;;;;;;5034961;28;20507;-67
2023/07/06 06:42:02;;;;;;;10.03;9.57;;;14.60;99.90;;;;;;5039283;28;20567;-66
2023/07/06 06:44:30;;;;;;;10.60;10.10;;;14.60;99.90;;;;;;5034929;28;20461;-66
2023/07/06 06:47:00;;;;;;;9.47;9.17;;;14.70;99.90;;;;;;5037348;28;20888;-68
2023/07/06 06:49:28;;;;;;;9.93;9.53;;;14.90;99.90;;;;;;5036740;28;20986;-68
2023/07/06 06:51:55;;;;;;;8.83;8.43;;;15.00;99.90;;;;;;5045551;28;20471;-66
2023/07/06 06:54:22;;;;;;;29.73;9.73;;;15.00;99.90;;;;;;5037542;28;20461;-66
2023/07/06 06:56:51;;;;;;;9.67;9.27;;;15.10;99.90;;;;;;5033362;28;20818;-65
2023/07/06 06:59:18;;;;;;;8.73;8.43;;;15.20;99.90;;;;;;5032772;28;20518;-67
2023/07/06 07:01:46;;;;;;;9.47;9.00;;;15.30;99.90;;;;;;5049864;28;20810;-65
2023/07/06 07:04:12;;;;;;;11.30;10.63;;;15.50;99.90;;;;;;5046365;28;20842;-66
2023/07/06 07:06:39;;;;;;;13.30;11.17;;;15.50;99.90;;;;;;5057535;28;21011;-66
2023/07/06 07:09:09;;;;;;;9.63;9.33;;;15.50;99.90;;;;;;5049593;28;20467;-66
2023/07/06 07:11:37;;;;;;;12.70;11.70;;;15.60;99.90;;;;;;5043490;28;20946;-67
2023/07/06 07:14:08;;;;;;;11.00;10.50;;;15.60;99.90;;;;;;5055238;28;20547;-65
2023/07/06 07:16:35;;;;;;;10.40;9.90;;;15.70;99.90;;;;;;5050029;28;20478;-66
2023/07/06 07:19:04;;;;;;;10.83;10.43;;;15.80;99.90;;;;;;5056897;28;20468;-65
2023/07/06 07:21:31;;;;;;;11.10;10.40;;;15.80;99.90;;;;;;5053322;28;20490;-66
2023/07/06 07:23:58;;;;;;;13.50;12.27;;;15.90;99.90;;;;;;5044627;28;20883;-65
2023/07/06 07:26:26;;;;;;;14.87;11.37;;;16.10;99.90;;;;;;5053180;28;20494;-68
2023/07/06 07:28:53;;;;;;;23.07;12.30;;;16.10;99.90;;;;;;5048708;28;20736;-66
2023/07/06 07:31:22;;;;;;;11.03;10.53;;;16.10;99.90;;;;;;5041274;28;21265;-67
2023/07/06 07:33:51;;;;;;;12.20;11.70;;;16.20;99.90;;;;;;5049269;28;20455;-67
2023/07/06 07:36:19;;;;;;;12.27;11.23;;;16.20;99.90;;;;;;5049017;28;20460;-66
2023/07/06 07:38:47;;;;;;;10.60;10.20;;;16.40;99.90;;;;;;5052196;28;20521;-67
2023/07/06 07:41:18;;;;;;;13.00;12.40;;;16.50;99.90;;;;;;5058766;28;20475;-65
2023/07/06 07:43:48;;;;;;;12.77;12.00;;;16.70;99.90;;;;;;5056851;28;20460;-66
2023/07/06 07:46:16;;;;;;;13.37;12.77;;;16.70;99.90;;;;;;5048798;28;20471;-65
2023/07/06 07:48:47;;;;;;;13.07;12.47;;;16.90;99.90;;;;;;5046562;28;20467;-65
2023/07/06 07:51:15;;;;;;;12.83;12.30;;;17.00;99.90;;;;;;5050028;28;20483;-65
2023/07/06 07:53:44;;;;;;;13.30;12.50;;;17.10;99.90;;;;;;5056104;28;20849;-67
2023/07/06 07:56:15;;;;;;;16.07;14.50;;;17.20;99.90;;;;;;5046296;28;20510;-66
2023/07/06 07:58:46;;;;;;;14.70;14.00;;;17.30;99.90;;;;;;5046543;28;20498;-65
2023/07/06 08:01:15;;;;;;;15.47;14.47;;;17.30;99.90;;;;;;5045398;28;20482;-66
2023/07/06 08:03:45;;;;;;;13.67;13.10;;;17.10;99.90;;;;;;5046824;28;20973;-65
2023/07/06 08:06:14;;;;;;;15.17;14.00;;;17.20;99.90;;;;;;5043034;28;20492;-66
2023/07/06 08:08:42;;;;;;;13.80;13.20;;;17.30;99.90;;;;;;5047719;28;20456;-66
2023/07/06 08:11:12;;;;;;;15.50;14.20;;;17.60;99.90;;;;;;5053050;28;20498;-66
2023/07/06 08:13:38;;;;;;;14.83;14.20;;;18.20;99.90;;;;;;5054319;28;20545;-66
2023/07/06 08:16:06;;;;;;;16.77;15.93;;;18.90;99.90;;;;;;5050126;28;20499;-66
2023/07/06 08:18:34;;;;;;;16.47;15.63;;;19.30;99.90;;;;;;5037378;28;20499;-66
2023/07/06 08:21:03;;;;;;;17.80;15.37;;;19.40;99.90;;;;;;5045897;28;20782;-67
2023/07/06 08:23:30;;;;;;;17.23;15.53;;;19.50;99.90;;;;;;5054337;28;20531;-67
2023/07/06 08:25:57;;;;;;;17.03;16.13;;;19.90;99.90;;;;;;5033289;28;20472;-67
2023/07/06 08:28:28;;;;;;;17.30;16.40;;;20.10;99.90;;;;;;5050198;28;20456;-66
2023/07/06 08:30:55;;;;;;;17.73;16.63;;;20.40;99.90;;;;;;5042318;28;20795;-67
2023/07/06 08:33:22;;;;;;;16.60;15.80;;;20.70;99.90;;;;;;5044232;28;20466;-66
2023/07/06 08:35:50;;;;;;;18.40;17.30;;;21.20;99.90;;;;;;5052732;28;20953;-67
2023/07/06 08:38:19;;;;;;;16.67;15.87;;;21.70;99.90;;;;;;5044690;28;20466;-68
2023/07/06 08:40:51;;;;;;;17.10;16.27;;;21.70;99.90;;;;;;5047311;28;20516;-66
2023/07/06 08:43:20;;;;;;;16.30;15.50;;;21.80;99.90;;;;;;5055413;28;20491;-67
2023/07/06 08:45:52;;;;;;;16.70;15.90;;;22.10;99.90;;;;;;5038448;28;20460;-67
2023/07/06 08:48:22;;;;;;;16.50;15.70;;;22.40;99.90;;;;;;5057903;28;20455;-67
2023/07/06 08:50:51;;;;;;;17.43;16.53;;;22.60;99.90;;;;;;5058270;28;20491;-66
2023/07/06 08:53:27;;;;;;;17.53;16.53;;;22.30;99.90;;;;;;5038870;28;20824;-67
2023/07/06 08:55:55;;;;;;;17.30;16.20;;;22.30;99.90;;;;;;5054306;28;20455;-67
2023/07/06 08:58:25;;;;;;;16.83;16.03;;;22.60;99.90;;;;;;5048930;28;20468;-67
2023/07/06 09:00:55;;;;;;;17.73;16.83;;;23.20;99.90;;;;;;5054986;28;20456;-67
2023/07/06 09:03:23;;;;;;;17.70;16.80;;;23.50;99.90;;;;;;5048020;28;21008;-67
2023/07/06 09:05:54;;;;;;;16.90;16.10;;;23.80;99.90;;;;;;5056327;28;20509;-65
2023/07/06 09:08:29;;;;;;;17.70;16.47;;;23.10;99.90;;;;;;5037979;28;20464;-67
2023/07/06 09:10:56;;;;;;;18.50;17.50;;;22.90;99.90;;;;;;5043946;28;20542;-66
2023/07/06 09:13:25;;;;;;;17.80;16.63;;;22.80;99.90;;;;;;5049346;28;20470;-66
2023/07/06 09:15:57;;;;;;;17.40;16.60;;;23.10;99.90;;;;;;5056942;28;20483;-67
2023/07/06 09:18:24;;;;;;;18.53;17.53;;;23.10;99.90;;;;;;5050907;28;20456;-67
2023/07/06 09:20:52;;;;;;;19.30;18.30;;;23.50;99.90;;;;;;5037459;28;20848;-65
2023/07/06 09:23:19;;;;;;;18.30;17.43;;;23.80;99.90;;;;;;5051422;28;20537;-65
2023/07/06 09:25:49;;;;;;;17.97;17.17;;;23.80;99.90;;;;;;5046780;28;20896;-66
2023/07/06 09:28:23;;;;;;;18.60;17.50;;;24.10;99.90;;;;;;5060276;28;20546;-65
2023/07/06 09:31:05;;;;;;;18.63;17.73;;;24.50;99.90;;;;;;5045294;28;20575;-67
2023/07/06 09:33:32;;;;;;;18.90;17.90;;;25.00;99.90;;;;;;5043664;28;20530;-67
2023/07/06 09:36:00;;;;;;;19.00;18.10;;;24.70;99.90;;;;;;5052045;28;20478;-67
2023/07/06 09:38:27;;;;;;;19.20;18.30;;;24.90;99.90;;;;;;5049538;28;21022;-66
2023/07/06 09:40:55;;;;;;;19.17;18.27;;;24.50;99.90;;;;;;5063721;28;20471;-67
2023/07/06 09:43:24;;;;;;;20.43;19.43;;;25.00;99.90;;;;;;5042011;28;21045;-67
2023/07/06 09:45:53;;;;;;;19.63;18.73;;;25.20;99.90;;;;;;5049578;28;20954;-68
2023/07/06 09:48:30;;;;;;;18.50;17.70;;;25.30;99.90;;;;;;5053547;28;20486;-67
2023/07/06 09:51:05;;;;;;;19.33;18.43;;;25.90;99.90;;;;;;5048243;28;21105;-67
2023/07/06 09:53:35;;;;;;;18.83;18.03;;;26.10;99.30;;;;;;5049368;28;20459;-67
2023/07/06 09:56:10;;;;;;;19.60;18.70;;;26.20;98.50;;;;;;5045951;28;20464;-68
2023/07/06 09:58:37;;;;;;;18.63;17.83;;;26.10;99.90;;;;;;5044171;28;20505;-67
2023/07/06 10:01:13;;;;;;;19.57;17.90;;;26.00;99.90;;;;;;5043955;28;20529;-68
2023/07/06 10:03:49;;;;;;;18.50;17.70;;;26.30;99.00;;;;;;5031938;28;20535;-67
2023/07/06 10:06:28;;;;;;;18.27;17.37;;;26.90;98.00;;;;;;5044166;28;21023;-66
2023/07/06 10:09:03;;;;;;;18.10;17.30;;;27.40;97.30;;;;;;5049179;28;21072;-66
2023/07/06 10:11:36;;;;;;;18.20;17.40;;;27.40;96.80;;;;;;5052924;28;20502;-67
2023/07/06 10:14:09;;;;;;;19.47;18.00;;;27.60;96.00;;;;;;5062234;28;20467;-67
2023/07/06 10:16:46;;;;;;;18.03;17.23;;;27.50;94.20;;;;;;5048368;28;20488;-66
2023/07/06 10:19:20;;;;;;;17.53;16.80;;;27.30;92.80;;;;;;5051898;28;20872;-66
2023/07/06 10:21:59;;;;;;;18.13;17.33;;;26.60;93.50;;;;;;5047678;28;20494;-67
2023/07/06 10:24:36;;;;;;;18.20;17.40;;;26.20;93.00;;;;;;5048739;28;20829;-66
2023/07/06 10:27:10;;;;;;;17.53;16.73;;;26.20;93.10;;;;;;5058120;28;20851;-66
2023/07/06 10:29:43;;;;;;;17.90;17.07;;;26.70;93.30;;;;;;5036273;28;20461;-66
2023/07/06 10:32:14;;;;;;;18.33;17.43;;;26.40;93.40;;;;;;5036971;28;20488;-66
2023/07/06 10:34:45;;;;;;;16.93;16.23;;;26.20;92.90;;;;;;5042916;28;20550;-67
2023/07/06 10:37:16;;;;;;;17.40;16.50;;;26.50;92.50;;;;;;5051593;28;20734;-67
2023/07/06 10:40:04;;;;;;;17.50;16.70;;;26.20;92.30;;;;;;5046620;28;20517;-66
2023/07/06 10:42:33;;;;;;;17.40;16.63;;;26.50;93.10;;;;;;5055469;28;20487;-66
2023/07/06 10:45:02;;;;;;;17.80;16.80;;;25.90;94.00;;;;;;5047838;28;20856;-67
2023/07/06 10:47:40;;;;;;;18.07;17.27;;;27.00;93.20;;;;;;5049556;28;20474;-66
2023/07/06 10:50:28;;;;;;;17.33;16.63;;;27.10;93.20;;;;;;5058218;28;20483;-67
2023/07/06 10:53:01;;;;;;;17.80;17.00;;;27.20;93.20;;;;;;5035604;28;20802;-66
2023/07/06 10:55:31;;;;;;;18.20;17.30;;;27.60;92.30;;;;;;5047271;28;20936;-66
2023/07/06 10:58:26;;;;;;;18.00;17.20;;;27.80;91.60;;;;;;5051965;28;20947;-66
2023/07/06 11:00:54;;;;;;;17.50;16.70;;;27.00;92.90;;;;;;5044360;28;20547;-66
2023/07/06 11:03:25;;;;;;;17.40;16.60;;;27.00;90.90;;;;;;5048009;28;20502;-68
2023/07/06 11:05:55;;;;;;;20.77;19.53;;;26.80;92.30;;;;;;5036918;28;20459;-66
2023/07/06 11:08:55;;;;;;;17.70;17.00;;;27.00;93.40;;;;;;5038200;28;21053;-67
2023/07/06 11:11:22;;;;;;;17.80;17.00;;;26.80;90.80;;;;;;5055911;28;20464;-67
2023/07/06 11:13:53;;;;;;;18.10;17.20;;;26.90;90.90;;;;;;5036298;28;20560;-67
2023/07/06 11:16:26;;;;;;;18.13;17.33;;;27.20;91.70;;;;;;5049115;28;20805;-67
2023/07/06 11:18:56;;;;;;;18.17;17.37;;;27.70;90.60;;;;;;5042212;28;21082;-67
2023/07/06 11:21:32;;;;;;;18.47;17.53;;;28.20;91.60;;;;;;5037786;28;20463;-68
2023/07/06 11:24:06;;;;;;;17.90;17.10;;;28.80;91.10;;;;;;5031823;28;20566;-68
2023/07/06 11:26:42;;;;;;;17.20;16.50;;;28.90;90.10;;;;;;5033523;28;20464;-67
2023/07/06 11:29:12;;;;;;;17.00;16.30;;;28.40;89.10;;;;;;5043501;28;20488;-68
2023/07/06 11:31:53;;;;;;;17.70;16.70;;;28.30;87.90;;;;;;5049696;28;20458;-68
2023/07/06 11:34:34;;;;;;;17.07;16.37;;;28.30;90.00;;;;;;5032461;28;20468;-67
2023/07/06 11:37:04;;;;;;;17.40;16.70;;;28.10;91.00;;;;;;5038348;28;20980;-68
2023/07/06 11:39:39;;;;;;;18.77;17.50;;;27.10;90.40;;;;;;5039837;28;20467;-67
2023/07/06 11:42:25;;;;;;;17.13;16.13;;;26.40;91.00;;;;;;5052576;28;20460;-68
2023/07/06 11:44:54;;;;;;;17.40;16.30;;;26.90;90.30;;;;;;5041619;28;20460;-68
2023/07/06 11:47:41;;;;;;;17.17;16.37;;;27.60;87.90;;;;;;5039943;28;20913;-68
2023/07/06 11:50:13;;;;;;;16.90;16.20;;;28.00;88.60;;;;;;5040212;28;20484;-68
2023/07/06 11:52:45;;;;;;;17.83;17.03;;;28.30;85.10;;;;;;5054209;28;20482;-69
2023/07/06 11:55:29;;;;;;;16.80;16.10;;;29.00;87.50;;;;;;5038471;28;20462;-68
2023/07/06 11:58:04;;;;;;;17.40;16.67;;;28.70;85.90;;;;;;5042766;28;20472;-67
2023/07/06 12:00:48;;;;;;;17.50;16.70;;;29.00;84.70;;;;;;5037891;28;20908;-68
2023/07/06 12:03:15;;;;;;;17.63;16.83;;;30.00;83.10;;;;;;5033777;28;21056;-68
2023/07/06 12:05:46;;;;;;;17.90;17.10;;;30.20;80.50;;;;;;5036371;28;20460;-67
2023/07/06 12:08:16;;;;;;;18.50;17.60;;;30.60;78.70;;;;;;5057499;28;20878;-68
2023/07/06 12:10:48;;;;;;;17.90;17.10;;;31.00;79.30;;;;;;5033273;28;20466;-67
2023/07/06 12:13:21;;;;;;;17.70;16.90;;;31.20;73.10;;;;;;5034054;28;20475;-67
2023/07/06 12:15:51;;;;;;;18.00;17.20;;;30.40;74.90;;;;;;5038467;28;21009;-67
2023/07/06 12:18:23;;;;;;;17.03;16.23;;;30.20;75.30;;;;;;5032915;28;21252;-67
2023/07/06 12:20:52;;;;;;;16.80;16.10;;;29.90;75.90;;;;;;5035693;28;20455;-68
2023/07/06 12:23:20;;;;;;;17.23;16.53;;;30.90;74.20;;;;;;5038947;28;20495;-67
2023/07/06 12:25:47;;;;;;;17.30;16.60;;;31.30;75.20;;;;;;5031384;28;20466;-68
2023/07/06 12:28:15;;;;;;;17.27;16.57;;;31.70;71.80;;;;;;5033127;28;20471;-69
2023/07/06 12:30:43;;;;;;;16.70;16.00;;;30.60;71.90;;;;;;5041294;28;20567;-69
2023/07/06 12:33:16;;;;;;;16.77;16.07;;;30.80;74.20;;;;;;5045760;28;20464;-69
2023/07/06 12:35:45;;;;;;;16.90;16.20;;;29.90;73.30;;;;;;5038193;28;20879;-67
2023/07/06 12:38:15;;;;;;;17.23;16.43;;;28.20;75.50;;;;;;5039897;28;20970;-69
2023/07/06 12:40:43;;;;;;;17.03;16.33;;;27.90;76.00;;;;;;5036809;28;20464;-67
2023/07/06 12:43:18;;;;;;;16.90;16.10;;;27.70;75.60;;;;;;5041489;28;21100;-67
2023/07/06 12:45:46;;;;;;;16.93;16.23;;;28.80;79.80;;;;;;5050986;28;20462;-67